createdAt,value
2023-01-02T00:02:07.091Z,14.20
2023-01-02T00:07:10.935Z,14.30
2023-01-02T00:12:14.331Z,14.20
2023-01-02T00:17:20.656Z,14.30
2023-01-02T00:22:24.283Z,14.30
2023-01-02T00:27:27.670Z,14.30
2023-01-02T00:32:32.336Z,14.30
2023-01-02T00:37:35.731Z,14.30
2023-01-02T00:42:39.132Z,14.30
2023-01-02T00:47:43.830Z,14.30
2023-01-02T00:52:47.669Z,14.30
2023-01-02T00:57:51.304Z,14.30
2023-01-02T01:02:58.663Z,14.40
2023-01-02T01:08:02.533Z,14.40
2023-01-02T01:13:06.364Z,14.40
2023-01-02T01:18:11.106Z,14.40
2023-01-02T01:23:14.478Z,14.40
2023-01-02T01:28:17.940Z,14.40
2023-01-02T01:33:22.891Z,14.40
2023-01-02T01:38:26.266Z,14.40
2023-01-02T01:43:43.340Z,14.40
2023-01-02T01:48:51.165Z,14.40
2023-01-02T01:53:58.739Z,14.40
2023-01-02T01:59:02.699Z,14.40
2023-01-02T02:04:08.289Z,14.30
2023-01-02T02:09:17.910Z,14.30
2023-01-02T02:14:21.311Z,14.30
2023-01-02T02:20:02.328Z,14.20
2023-01-02T02:25:34.386Z,14.20
2023-01-02T02:30:41.622Z,14.10
2023-01-02T02:35:54.368Z,14.10
2023-01-02T02:41:06.802Z,14.10
2023-01-02T02:46:18.071Z,14.00
2023-01-02T02:51:31.476Z,14.00
2023-01-02T02:56:35.569Z,14.00
2023-01-02T03:01:40.356Z,14.00
2023-01-02T03:07:01.621Z,13.90
2023-01-02T03:12:14.057Z,13.90
2023-01-02T03:17:26.764Z,13.90
2023-01-02T03:22:34.885Z,13.90
2023-01-02T03:27:42.870Z,13.90
2023-01-02T03:32:52.019Z,13.80
2023-01-02T03:37:58.753Z,13.80
2023-01-02T03:43:08.249Z,13.80
2023-01-02T03:48:21.935Z,13.80
2023-01-02T03:53:26.092Z,13.70
2023-01-02T03:58:38.289Z,13.70
2023-01-02T04:03:50.400Z,13.70
2023-01-02T04:09:00.990Z,13.60
2023-01-02T04:14:11.402Z,13.60
2023-01-02T04:19:24.192Z,13.60
2023-01-02T04:24:32.360Z,13.60
2023-01-02T04:29:35.847Z,13.60
2023-01-02T04:34:43.199Z,13.60
2023-01-02T04:39:47.035Z,13.60
2023-01-02T04:44:50.432Z,13.60
2023-01-02T04:49:55.223Z,13.60
2023-01-02T04:54:58.626Z,13.60
2023-01-02T05:00:02.017Z,13.60
2023-01-02T05:05:08.415Z,13.60
2023-01-02T05:10:11.887Z,13.60
2023-01-02T05:15:15.318Z,13.60
2023-01-02T05:20:20.518Z,13.60
2023-01-02T05:25:23.982Z,13.70
2023-01-02T05:30:27.798Z,13.80
2023-01-02T05:35:33.595Z,13.80
2023-01-02T05:40:37.428Z,13.90
2023-01-02T05:45:40.846Z,13.90
2023-01-02T05:50:45.558Z,13.90
2023-01-02T05:55:48.961Z,13.90
2023-01-02T06:00:52.345Z,13.90
2023-01-02T06:05:57.203Z,13.90
2023-01-02T06:11:00.701Z,13.90
2023-01-02T06:16:05.862Z,13.90
2023-01-02T06:21:13.599Z,13.90
2023-01-02T06:26:19.214Z,13.80
2023-01-02T06:31:24.550Z,13.80
2023-01-02T06:36:31.608Z,13.80
2023-01-02T06:41:35.040Z,13.80
2023-01-02T06:46:38.931Z,13.80
2023-01-02T06:51:43.960Z,13.80
2023-01-02T06:56:47.337Z,13.80
2023-01-02T07:01:50.822Z,13.80
2023-01-02T07:06:55.739Z,13.80
2023-01-02T07:11:59.498Z,13.80
2023-01-02T07:17:03.222Z,13.90
2023-01-02T07:22:08.203Z,13.90
2023-01-02T07:27:11.601Z,13.90
2023-01-02T07:32:15.020Z,13.90
2023-01-02T07:37:20.037Z,13.90
2023-01-02T07:42:23.399Z,13.80
2023-01-02T07:47:27.066Z,13.80
2023-01-02T07:52:31.798Z,13.80
2023-01-02T07:57:35.154Z,13.70
2023-01-02T08:02:38.730Z,13.70
2023-01-02T08:07:45.212Z,13.70
2023-01-02T08:12:48.768Z,13.70
2023-01-02T08:17:52.440Z,13.70
2023-01-02T08:22:58.533Z,13.70
2023-01-02T08:28:01.920Z,13.60
2023-01-02T08:33:05.386Z,13.60
2023-01-02T08:38:10.135Z,13.60
2023-01-02T08:43:13.568Z,13.70
2023-01-02T08:48:21.017Z,13.70
2023-01-02T08:53:26.464Z,13.80
2023-01-02T08:58:30.134Z,13.80
2023-01-02T09:03:33.613Z,13.80
2023-01-02T09:08:38.406Z,13.90
2023-01-02T09:13:42.272Z,13.90
2023-01-02T09:18:45.747Z,14.00
2023-01-02T09:23:50.564Z,14.00
2023-01-02T09:28:54.264Z,14.10
2023-01-02T09:33:57.951Z,14.10
2023-01-02T09:39:03.422Z,14.20
2023-01-02T09:44:12.436Z,14.30
2023-01-02T09:49:19.343Z,14.40
2023-01-02T09:54:30.006Z,14.50
2023-01-02T09:59:37.311Z,14.50
2023-01-02T10:04:56.810Z,14.60
2023-01-02T10:10:07.101Z,14.70
2023-01-02T10:15:15.064Z,14.80
2023-01-02T10:20:26.376Z,14.90
2023-01-02T10:25:34.544Z,15.00
2023-01-02T10:30:44.798Z,15.10
2023-01-02T10:35:54.305Z,15.10
2023-01-02T10:40:59.387Z,15.20
2023-01-02T10:46:04.177Z,15.30
2023-01-02T10:51:15.482Z,15.40
2023-01-02T10:56:21.379Z,15.40
2023-01-02T11:01:24.975Z,15.50
2023-01-02T11:06:38.935Z,15.60
2023-01-02T11:11:51.183Z,15.60
2023-01-02T11:16:55.640Z,15.70
2023-01-02T11:22:00.037Z,15.70
2023-01-02T11:27:04.960Z,15.80
2023-01-02T11:32:08.741Z,15.80
2023-01-02T11:37:17.972Z,15.80
2023-01-02T11:42:46.573Z,15.90
2023-01-02T11:47:52.237Z,15.90
2023-01-02T11:53:00.226Z,15.90
2023-01-02T11:58:13.144Z,15.90
2023-01-02T12:03:19.249Z,15.90
2023-01-02T12:08:40.381Z,16.00
2023-01-02T12:14:01.383Z,16.00
2023-01-02T12:19:29.771Z,16.00
2023-01-02T12:24:54.011Z,16.00
2023-01-02T12:30:08.294Z,16.00
2023-01-02T12:35:23.676Z,16.00
2023-01-02T12:40:53.132Z,15.90
2023-01-02T12:46:09.597Z,15.90
2023-01-02T12:51:20.713Z,15.90
2023-01-02T12:56:31.501Z,15.90
2023-01-02T13:01:41.162Z,15.90
2023-01-02T13:06:52.325Z,16.00
2023-01-02T13:12:02.250Z,15.90
2023-01-02T13:17:25.685Z,16.00
2023-01-02T13:22:37.745Z,16.00
2023-01-02T13:27:41.934Z,16.00
2023-01-02T13:32:49.264Z,16.00
2023-01-02T13:37:54.215Z,16.00
2023-01-02T13:43:00.462Z,16.00
2023-01-02T13:48:07.801Z,16.00
2023-01-02T13:53:30.173Z,16.00
2023-01-02T13:59:01.458Z,16.00
2023-01-02T14:04:41.734Z,16.00
2023-01-02T14:10:21.876Z,16.00
2023-01-02T14:15:27.306Z,16.00
2023-01-02T14:20:32.515Z,15.90
2023-01-02T14:25:48.920Z,15.90
2023-01-02T14:30:53.058Z,15.90
2023-01-02T14:35:58.775Z,15.90
2023-01-02T14:41:17.419Z,15.80
2023-01-02T14:46:23.984Z,15.70
2023-01-02T14:51:34.069Z,15.60
2023-01-02T14:56:42.436Z,15.60
2023-01-02T15:01:50.969Z,15.50
2023-01-02T15:07:10.511Z,15.50
2023-01-02T15:12:41.446Z,15.40
2023-01-02T15:17:48.212Z,15.40
2023-01-02T15:22:54.366Z,15.30
2023-01-02T15:27:59.126Z,15.30
2023-01-02T15:33:02.490Z,15.30
2023-01-02T15:38:19.343Z,15.20
2023-01-02T15:43:49.401Z,15.20
2023-01-02T15:48:53.955Z,15.10
2023-01-02T15:54:03.006Z,15.10
2023-01-02T15:59:29.671Z,15.10
2023-01-02T16:04:34.401Z,15.10
2023-01-02T16:09:39.076Z,15.00
2023-01-02T16:14:49.592Z,15.00
2023-01-02T16:19:58.811Z,14.90
2023-01-02T16:25:08.347Z,14.90
2023-01-02T16:30:41.108Z,14.90
2023-01-02T16:35:58.222Z,14.80
2023-01-02T16:41:08.407Z,14.80
2023-01-02T16:46:16.290Z,14.80
2023-01-02T16:51:19.854Z,14.70
2023-01-02T16:56:24.009Z,14.70
2023-01-02T17:01:28.848Z,14.70
2023-01-02T17:06:32.479Z,14.60
2023-01-02T17:11:36.058Z,14.50
2023-01-02T17:16:40.827Z,14.50
2023-01-02T17:21:44.239Z,14.50
2023-01-02T17:26:48.181Z,14.50
2023-01-02T17:31:52.939Z,14.50
2023-01-02T17:36:57.042Z,14.50
2023-01-02T17:42:00.438Z,14.40
2023-01-02T17:47:38.574Z,14.40
2023-01-02T17:52:28.917Z,14.40
2023-01-02T17:57:32.472Z,14.30
2023-01-02T18:02:37.440Z,14.30
2023-01-02T18:07:40.905Z,14.30
2023-01-02T18:12:45.232Z,14.20
2023-01-02T18:17:50.891Z,14.20
2023-01-02T18:22:54.596Z,14.10
2023-01-02T18:28:03.025Z,14.10
2023-01-02T18:33:15.807Z,14.10
2023-01-02T18:38:32.126Z,14.00
2023-01-02T18:43:36.529Z,14.00
2023-01-02T18:48:42.039Z,14.00
2023-01-02T18:53:48.690Z,13.90
2023-01-02T18:58:59.814Z,13.90
2023-01-02T19:04:26.752Z,13.80
2023-01-02T19:09:35.093Z,13.80
2023-01-02T19:14:40.732Z,13.80
2023-01-02T19:19:47.856Z,13.80
2023-01-02T19:24:51.586Z,13.70
2023-01-02T19:29:55.701Z,13.70
2023-01-02T19:35:03.336Z,13.60
2023-01-02T19:40:18.688Z,13.60
2023-01-02T19:45:24.681Z,13.60
2023-01-02T19:50:29.437Z,13.60
2023-01-02T19:55:36.745Z,13.50
2023-01-02T20:00:40.222Z,13.50
2023-01-02T20:05:45.006Z,13.40
2023-01-02T20:10:48.693Z,13.40
2023-01-02T20:15:53.209Z,13.40
2023-01-02T20:20:58.384Z,13.40
2023-01-02T20:26:01.733Z,13.40
2023-01-02T20:31:09.891Z,13.40
2023-01-02T20:36:14.945Z,13.50
2023-01-02T20:41:18.892Z,13.50
2023-01-02T20:46:22.871Z,13.60
2023-01-02T20:51:30.247Z,13.60
2023-01-02T20:56:34.072Z,13.60
2023-01-02T21:01:37.851Z,13.70
2023-01-02T21:06:42.759Z,13.70
2023-01-02T21:11:46.466Z,13.80
2023-01-02T21:16:50.085Z,13.80
2023-01-02T21:21:54.842Z,13.80
2023-01-02T21:26:58.230Z,13.70
2023-01-02T21:32:01.581Z,13.70
2023-01-02T21:37:07.811Z,13.70
2023-01-02T21:42:17.373Z,13.70
2023-01-02T21:47:21.449Z,13.70
2023-01-02T21:52:26.555Z,13.70
2023-01-02T21:58:02.555Z,13.70
2023-01-02T22:02:53.706Z,13.70
2023-01-02T22:07:59.563Z,13.70
2023-01-02T22:13:02.981Z,13.70
2023-01-02T22:18:06.509Z,13.70
2023-01-02T22:23:11.247Z,13.70
2023-01-02T22:28:14.933Z,13.70
2023-01-02T22:33:18.732Z,13.70
2023-01-02T22:38:23.764Z,13.70
2023-01-02T22:43:28.932Z,13.80
2023-01-02T22:48:36.938Z,13.70
2023-01-02T22:53:42.414Z,13.80
2023-01-02T22:58:47.094Z,13.70
2023-01-02T23:03:50.955Z,13.70
2023-01-02T23:08:56.044Z,13.70
2023-01-02T23:13:59.472Z,13.80
2023-01-02T23:19:18.937Z,13.70
2023-01-02T23:24:26.009Z,13.70
2023-01-02T23:29:30.170Z,13.70
2023-01-02T23:34:33.777Z,13.70
2023-01-02T23:39:38.637Z,13.70
2023-01-02T23:44:44.001Z,13.60
2023-01-02T23:49:47.383Z,13.60
2023-01-02T23:54:52.166Z,13.60
2023-01-02T23:59:55.800Z,13.60
